sensor_id;sensor_type;location;lat;lon;timestamp;temperature;humidity
66710;DHT22;53624;0.000;0.000;2023-03-15T00:01:18;14.30;94.70
66710;DHT22;53624;0.000;0.000;2023-03-15T00:03:45;14.30;94.60
66710;DHT22;53624;0.000;0.000;2023-03-15T00:06:13;14.20;94.50
66710;DHT22;53624;0.000;0.000;2023-03-15T00:08:40;14.20;94.50
66710;DHT22;53624;0.000;0.000;2023-03-15T00:11:12;14.20;94.50
66710;DHT22;53624;0.000;0.000;2023-03-15T00:13:41;14.20;94.40
66710;DHT22;53624;0.000;0.000;2023-03-15T00:16:09;14.20;94.40
66710;DHT22;53624;0.000;0.000;2023-03-15T00:18:37;14.10;94.30
66710;DHT22;53624;0.000;0.000;2023-03-15T00:21:04;14.10;94.30
66710;DHT22;53624;0.000;0.000;2023-03-15T00:23:32;14.10;94.20
66710;DHT22;53624;0.000;0.000;2023-03-15T00:25:59;14.10;94.30
66710;DHT22;53624;0.000;0.000;2023-03-15T00:28:26;14.10;94.20
66710;DHT22;53624;0.000;0.000;2023-03-15T00:31:05;14.10;94.20
66710;DHT22;53624;0.000;0.000;2023-03-15T00:33:35;14.10;94.20
66710;DHT22;53624;0.000;0.000;2023-03-15T00:36:03;14.10;94.20
66710;DHT22;53624;0.000;0.000;2023-03-15T00:38:31;14.10;94.30
66710;DHT22;53624;0.000;0.000;2023-03-15T00:41:02;14.10;94.30
66710;DHT22;53624;0.000;0.000;2023-03-15T00:43:30;14.10;94.30
66710;DHT22;53624;0.000;0.000;2023-03-15T00:45:57;14.00;94.30
66710;DHT22;53624;0.000;0.000;2023-03-15T00:48:26;14.00;94.30
66710;DHT22;53624;0.000;0.000;2023-03-15T00:51:00;14.00;94.30
66710;DHT22;53624;0.000;0.000;2023-03-15T00:53:27;14.00;94.30
66710;DHT22;53624;0.000;0.000;2023-03-15T00:55:55;14.00;94.30
66710;DHT22;53624;0.000;0.000;2023-03-15T00:58:22;14.00;94.30
66710;DHT22;53624;0.000;0.000;2023-03-15T01:00:50;14.00;94.40
66710;DHT22;53624;0.000;0.000;2023-03-15T01:03:17;14.00;94.40
66710;DHT22;53624;0.000;0.000;2023-03-15T01:05:47;14.00;94.40
66710;DHT22;53624;0.000;0.000;2023-03-15T01:08:14;14.00;94.40
66710;DHT22;53624;0.000;0.000;2023-03-15T01:10:42;14.00;94.50
66710;DHT22;53624;0.000;0.000;2023-03-15T01:13:09;14.00;94.40
66710;DHT22;53624;0.000;0.000;2023-03-15T01:15:37;13.90;94.50
66710;DHT22;53624;0.000;0.000;2023-03-15T01:18:04;13.90;94.50
66710;DHT22;53624;0.000;0.000;2023-03-15T01:20:31;13.90;94.50
66710;DHT22;53624;0.000;0.000;2023-03-15T01:23:00;13.90;94.50
66710;DHT22;53624;0.000;0.000;2023-03-15T01:25:28;13.90;94.50
66710;DHT22;53624;0.000;0.000;2023-03-15T01:27:55;13.90;94.70
66710;DHT22;53624;0.000;0.000;2023-03-15T01:30:23;13.90;94.60
66710;DHT22;53624;0.000;0.000;2023-03-15T01:32:50;13.90;94.50
66710;DHT22;53624;0.000;0.000;2023-03-15T01:35:18;13.90;94.50
66710;DHT22;53624;0.000;0.000;2023-03-15T01:37:47;13.90;94.50
66710;DHT22;53624;0.000;0.000;2023-03-15T01:40:17;13.90;94.50
66710;DHT22;53624;0.000;0.000;2023-03-15T01:43:13;13.80;94.40
66710;DHT22;53624;0.000;0.000;2023-03-15T01:48:34;13.90;94.40
66710;DHT22;53624;0.000;0.000;2023-03-15T01:51:05;13.80;94.40
66710;DHT22;53624;0.000;0.000;2023-03-15T01:53:33;13.80;94.40
66710;DHT22;53624;0.000;0.000;2023-03-15T01:56:03;13.80;94.40
66710;DHT22;53624;0.000;0.000;2023-03-15T01:58:36;13.80;94.40
66710;DHT22;53624;0.000;0.000;2023-03-15T02:01:04;13.80;94.40
66710;DHT22;53624;0.000;0.000;2023-03-15T02:03:36;13.80;94.40
66710;DHT22;53624;0.000;0.000;2023-03-15T02:06:06;13.80;94.50
66710;DHT22;53624;0.000;0.000;2023-03-15T02:08:46;13.80;94.50
66710;DHT22;53624;0.000;0.000;2023-03-15T02:11:18;13.80;94.50
66710;DHT22;53624;0.000;0.000;2023-03-15T02:13:47;13.80;94.40
66710;DHT22;53624;0.000;0.000;2023-03-15T02:16:15;13.70;94.40
66710;DHT22;53624;0.000;0.000;2023-03-15T02:18:50;13.80;94.40
66710;DHT22;53624;0.000;0.000;2023-03-15T02:21:21;13.70;94.30
66710;DHT22;53624;0.000;0.000;2023-03-15T02:23:53;13.70;94.30
66710;DHT22;53624;0.000;0.000;2023-03-15T02:26:24;13.70;94.30
66710;DHT22;53624;0.000;0.000;2023-03-15T02:28:58;13.70;94.30
66710;DHT22;53624;0.000;0.000;2023-03-15T02:31:27;13.70;94.30
66710;DHT22;53624;0.000;0.000;2023-03-15T02:33:55;13.70;94.30
66710;DHT22;53624;0.000;0.000;2023-03-15T02:36:23;13.70;94.20
66710;DHT22;53624;0.000;0.000;2023-03-15T02:38:51;13.70;94.30
66710;DHT22;53624;0.000;0.000;2023-03-15T02:41:19;13.70;94.30
66710;DHT22;53624;0.000;0.000;2023-03-15T02:43:48;13.70;94.20
66710;DHT22;53624;0.000;0.000;2023-03-15T02:46:19;13.70;94.20
66710;DHT22;53624;0.000;0.000;2023-03-15T02:48:47;13.70;94.20
66710;DHT22;53624;0.000;0.000;2023-03-15T02:51:18;13.60;94.10
66710;DHT22;53624;0.000;0.000;2023-03-15T02:53:46;13.60;94.10
66710;DHT22;53624;0.000;0.000;2023-03-15T02:56:14;13.60;94.00
66710;DHT22;53624;0.000;0.000;2023-03-15T02:58:42;13.60;94.00
66710;DHT22;53624;0.000;0.000;2023-03-15T03:01:11;13.60;94.00
66710;DHT22;53624;0.000;0.000;2023-03-15T03:03:41;13.60;94.00
66710;DHT22;53624;0.000;0.000;2023-03-15T03:06:09;13.60;94.10
66710;DHT22;53624;0.000;0.000;2023-03-15T03:08:38;13.60;94.00
66710;DHT22;53624;0.000;0.000;2023-03-15T03:11:07;13.60;94.00
66710;DHT22;53624;0.000;0.000;2023-03-15T03:13:36;13.60;94.00
66710;DHT22;53624;0.000;0.000;2023-03-15T03:16:05;13.60;94.00
66710;DHT22;53624;0.000;0.000;2023-03-15T03:18:33;13.50;94.00
66710;DHT22;53624;0.000;0.000;2023-03-15T03:21:04;13.60;94.00
66710;DHT22;53624;0.000;0.000;2023-03-15T03:23:33;13.50;94.00
66710;DHT22;53624;0.000;0.000;2023-03-15T03:26:01;13.50;94.00
66710;DHT22;53624;0.000;0.000;2023-03-15T03:28:30;13.50;94.10
66710;DHT22;53624;0.000;0.000;2023-03-15T03:31:00;13.50;94.00
66710;DHT22;53624;0.000;0.000;2023-03-15T03:33:28;13.50;94.00
66710;DHT22;53624;0.000;0.000;2023-03-15T03:35:59;13.50;94.00
66710;DHT22;53624;0.000;0.000;2023-03-15T03:38:29;13.50;94.00
66710;DHT22;53624;0.000;0.000;2023-03-15T03:41:00;13.40;94.00
66710;DHT22;53624;0.000;0.000;2023-03-15T03:43:30;13.40;94.00
66710;DHT22;53624;0.000;0.000;2023-03-15T03:45:58;13.40;93.90
66710;DHT22;53624;0.000;0.000;2023-03-15T03:48:26;13.40;94.00
66710;DHT22;53624;0.000;0.000;2023-03-15T03:50:53;13.30;93.90
66710;DHT22;53624;0.000;0.000;2023-03-15T03:53:21;13.30;93.90
66710;DHT22;53624;0.000;0.000;2023-03-15T03:55:50;13.30;94.00
66710;DHT22;53624;0.000;0.000;2023-03-15T03:58:21;13.30;93.90
66710;DHT22;53624;0.000;0.000;2023-03-15T04:01:03;13.30;93.90
66710;DHT22;53624;0.000;0.000;2023-03-15T04:03:36;13.30;93.90
66710;DHT22;53624;0.000;0.000;2023-03-15T04:06:08;13.30;93.90
66710;DHT22;53624;0.000;0.000;2023-03-15T04:08:39;13.30;93.90
66710;DHT22;53624;0.000;0.000;2023-03-15T04:11:11;13.30;93.80
66710;DHT22;53624;0.000;0.000;2023-03-15T04:13:43;13.20;93.80
66710;DHT22;53624;0.000;0.000;2023-03-15T04:16:11;13.20;93.80
66710;DHT22;53624;0.000;0.000;2023-03-15T04:18:54;13.20;93.80
66710;DHT22;53624;0.000;0.000;2023-03-15T04:21:22;13.20;93.80
66710;DHT22;53624;0.000;0.000;2023-03-15T04:23:54;13.20;93.80
66710;DHT22;53624;0.000;0.000;2023-03-15T04:26:34;13.10;93.80
66710;DHT22;53624;0.000;0.000;2023-03-15T04:29:21;13.10;93.80
66710;DHT22;53624;0.000;0.000;2023-03-15T04:32:06;13.10;93.70
66710;DHT22;53624;0.000;0.000;2023-03-15T04:34:49;13.10;93.70
66710;DHT22;53624;0.000;0.000;2023-03-15T04:37:40;13.10;93.60
66710;DHT22;53624;0.000;0.000;2023-03-15T04:40:26;13.10;93.70
66710;DHT22;53624;0.000;0.000;2023-03-15T04:43:02;13.00;93.60
66710;DHT22;53624;0.000;0.000;2023-03-15T04:45:49;13.00;93.60
66710;DHT22;53624;0.000;0.000;2023-03-15T04:48:45;13.00;93.60
66710;DHT22;53624;0.000;0.000;2023-03-15T04:51:31;13.00;93.50
66710;DHT22;53624;0.000;0.000;2023-03-15T04:54:17;13.00;93.60
66710;DHT22;53624;0.000;0.000;2023-03-15T04:57:14;12.90;93.50
66710;DHT22;53624;0.000;0.000;2023-03-15T05:00:02;12.90;93.50
66710;DHT22;53624;0.000;0.000;2023-03-15T05:02:49;12.90;93.50
66710;DHT22;53624;0.000;0.000;2023-03-15T05:05:38;12.90;93.50
66710;DHT22;53624;0.000;0.000;2023-03-15T05:08:19;12.90;93.40
66710;DHT22;53624;0.000;0.000;2023-03-15T05:10:58;12.80;93.40
66710;DHT22;53624;0.000;0.000;2023-03-15T05:13:43;12.80;93.40
66710;DHT22;53624;0.000;0.000;2023-03-15T05:16:30;12.80;93.40
66710;DHT22;53624;0.000;0.000;2023-03-15T05:19:11;12.70;93.30
66710;DHT22;53624;0.000;0.000;2023-03-15T05:21:54;12.80;93.30
66710;DHT22;53624;0.000;0.000;2023-03-15T05:24:42;12.70;93.30
66710;DHT22;53624;0.000;0.000;2023-03-15T05:27:30;12.70;93.30
66710;DHT22;53624;0.000;0.000;2023-03-15T05:30:25;12.70;93.30
66710;DHT22;53624;0.000;0.000;2023-03-15T05:33:20;12.70;93.20
66710;DHT22;53624;0.000;0.000;2023-03-15T05:36:16;12.70;93.30
66710;DHT22;53624;0.000;0.000;2023-03-15T05:38:56;12.60;93.20
66710;DHT22;53624;0.000;0.000;2023-03-15T05:41:44;12.60;93.20
66710;DHT22;53624;0.000;0.000;2023-03-15T05:44:40;12.60;93.10
66710;DHT22;53624;0.000;0.000;2023-03-15T05:47:30;12.60;93.10
66710;DHT22;53624;0.000;0.000;2023-03-15T05:50:18;12.60;93.10
66710;DHT22;53624;0.000;0.000;2023-03-15T05:53:12;12.60;93.10
66710;DHT22;53624;0.000;0.000;2023-03-15T05:55:58;12.60;93.10
66710;DHT22;53624;0.000;0.000;2023-03-15T05:58:26;12.50;93.00
66710;DHT22;53624;0.000;0.000;2023-03-15T06:00:54;12.50;93.10
66710;DHT22;53624;0.000;0.000;2023-03-15T06:03:40;12.50;93.00
66710;DHT22;53624;0.000;0.000;2023-03-15T06:06:17;12.50;93.00
66710;DHT22;53624;0.000;0.000;2023-03-15T06:08:44;12.50;92.90
66710;DHT22;53624;0.000;0.000;2023-03-15T06:11:12;12.50;93.00
66710;DHT22;53624;0.000;0.000;2023-03-15T06:13:40;12.50;93.00
66710;DHT22;53624;0.000;0.000;2023-03-15T06:16:15;12.50;93.00
66710;DHT22;53624;0.000;0.000;2023-03-15T06:18:46;12.50;93.00
66710;DHT22;53624;0.000;0.000;2023-03-15T06:21:13;12.50;93.00
66710;DHT22;53624;0.000;0.000;2023-03-15T06:23:42;12.50;92.90
66710;DHT22;53624;0.000;0.000;2023-03-15T06:26:10;12.40;92.90
66710;DHT22;53624;0.000;0.000;2023-03-15T06:28:39;12.50;92.90
66710;DHT22;53624;0.000;0.000;2023-03-15T06:31:08;12.50;92.90
66710;DHT22;53624;0.000;0.000;2023-03-15T06:33:43;12.40;92.90
66710;DHT22;53624;0.000;0.000;2023-03-15T06:36:11;12.50;92.90
66710;DHT22;53624;0.000;0.000;2023-03-15T06:38:44;12.50;92.80
66710;DHT22;53624;0.000;0.000;2023-03-15T06:41:12;12.50;92.80
66710;DHT22;53624;0.000;0.000;2023-03-15T06:43:41;12.50;92.80
66710;DHT22;53624;0.000;0.000;2023-03-15T06:46:08;12.50;92.80
66710;DHT22;53624;0.000;0.000;2023-03-15T06:48:36;12.50;92.80
66710;DHT22;53624;0.000;0.000;2023-03-15T06:51:03;12.50;92.90
66710;DHT22;53624;0.000;0.000;2023-03-15T06:53:31;12.40;92.80
66710;DHT22;53624;0.000;0.000;2023-03-15T06:56:01;12.50;92.80
66710;DHT22;53624;0.000;0.000;2023-03-15T06:58:28;12.50;92.80
66710;DHT22;53624;0.000;0.000;2023-03-15T07:00:55;12.50;92.80
66710;DHT22;53624;0.000;0.000;2023-03-15T07:03:23;12.50;92.80
66710;DHT22;53624;0.000;0.000;2023-03-15T07:05:50;12.50;92.80
66710;DHT22;53624;0.000;0.000;2023-03-15T07:08:19;12.50;92.80
66710;DHT22;53624;0.000;0.000;2023-03-15T07:10:47;12.50;92.80
66710;DHT22;53624;0.000;0.000;2023-03-15T07:13:16;12.50;92.70
66710;DHT22;53624;0.000;0.000;2023-03-15T07:15:44;12.50;92.70
66710;DHT22;53624;0.000;0.000;2023-03-15T07:18:12;12.60;92.70
66710;DHT22;53624;0.000;0.000;2023-03-15T07:20:40;12.60;92.70
66710;DHT22;53624;0.000;0.000;2023-03-15T07:23:07;12.60;92.70
66710;DHT22;53624;0.000;0.000;2023-03-15T07:25:35;12.60;92.70
66710;DHT22;53624;0.000;0.000;2023-03-15T07:28:02;12.60;92.60
66710;DHT22;53624;0.000;0.000;2023-03-15T07:30:31;12.70;92.60
66710;DHT22;53624;0.000;0.000;2023-03-15T07:32:58;12.70;92.60
66710;DHT22;53624;0.000;0.000;2023-03-15T07:35:26;12.80;92.50
66710;DHT22;53624;0.000;0.000;2023-03-15T07:37:53;12.80;92.40
66710;DHT22;53624;0.000;0.000;2023-03-15T07:40:21;12.80;92.40
66710;DHT22;53624;0.000;0.000;2023-03-15T07:42:49;12.90;92.40
66710;DHT22;53624;0.000;0.000;2023-03-15T07:45:17;12.90;92.30
66710;DHT22;53624;0.000;0.000;2023-03-15T07:47:46;12.90;92.30
66710;DHT22;53624;0.000;0.000;2023-03-15T07:52:42;13.00;92.30
66710;DHT22;53624;0.000;0.000;2023-03-15T07:55:10;13.10;92.30
66710;DHT22;53624;0.000;0.000;2023-03-15T07:57:37;13.10;92.20
66710;DHT22;53624;0.000;0.000;2023-03-15T08:00:05;13.30;92.10
66710;DHT22;53624;0.000;0.000;2023-03-15T08:02:38;13.40;91.90
66710;DHT22;53624;0.000;0.000;2023-03-15T08:05:07;13.60;91.80
66710;DHT22;53624;0.000;0.000;2023-03-15T08:07:35;13.70;91.70
66710;DHT22;53624;0.000;0.000;2023-03-15T08:10:02;13.90;91.50
66710;DHT22;53624;0.000;0.000;2023-03-15T08:12:31;14.20;91.20
66710;DHT22;53624;0.000;0.000;2023-03-15T08:15:00;14.50;90.80
66710;DHT22;53624;0.000;0.000;2023-03-15T08:17:27;14.80;90.50
66710;DHT22;53624;0.000;0.000;2023-03-15T08:19:55;15.70;89.20
66710;DHT22;53624;0.000;0.000;2023-03-15T08:22:23;16.70;86.50
66710;DHT22;53624;0.000;0.000;2023-03-15T08:24:51;17.30;84.50
66710;DHT22;53624;0.000;0.000;2023-03-15T08:27:18;17.90;83.10
66710;DHT22;53624;0.000;0.000;2023-03-15T08:29:46;18.20;82.40
66710;DHT22;53624;0.000;0.000;2023-03-15T08:32:14;18.50;81.70
66710;DHT22;53624;0.000;0.000;2023-03-15T08:34:42;18.80;81.00
66710;DHT22;53624;0.000;0.000;2023-03-15T08:37:10;19.10;80.30
66710;DHT22;53624;0.000;0.000;2023-03-15T08:39:39;19.40;79.70
66710;DHT22;53624;0.000;0.000;2023-03-15T08:42:07;19.70;79.00
66710;DHT22;53624;0.000;0.000;2023-03-15T08:44:34;20.00;78.10
66710;DHT22;53624;0.000;0.000;2023-03-15T08:47:02;20.30;77.70
66710;DHT22;53624;0.000;0.000;2023-03-15T08:49:30;20.50;77.40
66710;DHT22;53624;0.000;0.000;2023-03-15T08:51:57;20.70;76.90
66710;DHT22;53624;0.000;0.000;2023-03-15T08:54:25;20.90;76.40
66710;DHT22;53624;0.000;0.000;2023-03-15T08:56:53;21.00;76.20
66710;DHT22;53624;0.000;0.000;2023-03-15T08:59:21;20.90;76.30
66710;DHT22;53624;0.000;0.000;2023-03-15T09:01:48;20.30;77.70
66710;DHT22;53624;0.000;0.000;2023-03-15T09:04:16;19.50;79.60
66710;DHT22;53624;0.000;0.000;2023-03-15T09:06:43;19.00;81.50
66710;DHT22;53624;0.000;0.000;2023-03-15T09:09:11;18.60;82.40
66710;DHT22;53624;0.000;0.000;2023-03-15T09:11:42;18.30;83.00
66710;DHT22;53624;0.000;0.000;2023-03-15T09:14:11;18.20;83.30
66710;DHT22;53624;0.000;0.000;2023-03-15T09:16:39;18.00;83.90
66710;DHT22;53624;0.000;0.000;2023-03-15T09:19:06;18.00;84.10
66710;DHT22;53624;0.000;0.000;2023-03-15T09:21:34;18.10;84.10
66710;DHT22;53624;0.000;0.000;2023-03-15T09:24:01;18.00;84.30
66710;DHT22;53624;0.000;0.000;2023-03-15T09:26:29;18.10;84.40
66710;DHT22;53624;0.000;0.000;2023-03-15T09:28:56;18.40;83.40
66710;DHT22;53624;0.000;0.000;2023-03-15T09:31:25;18.70;82.80
66710;DHT22;53624;0.000;0.000;2023-03-15T09:33:52;19.00;81.60
66710;DHT22;53624;0.000;0.000;2023-03-15T09:36:21;19.20;81.40
66710;DHT22;53624;0.000;0.000;2023-03-15T09:38:48;19.10;82.20
66710;DHT22;53624;0.000;0.000;2023-03-15T09:41:17;19.40;82.00
66710;DHT22;53624;0.000;0.000;2023-03-15T09:46:37;19.80;80.70
66710;DHT22;53624;0.000;0.000;2023-03-15T09:49:07;19.90;80.70
66710;DHT22;53624;0.000;0.000;2023-03-15T09:51:40;20.10;80.40
66710;DHT22;53624;0.000;0.000;2023-03-15T09:54:10;20.20;81.00
66710;DHT22;53624;0.000;0.000;2023-03-15T09:56:39;20.20;81.30
66710;DHT22;53624;0.000;0.000;2023-03-15T09:59:10;20.40;81.20
66710;DHT22;53624;0.000;0.000;2023-03-15T10:01:40;20.40;81.40
66710;DHT22;53624;0.000;0.000;2023-03-15T10:04:09;20.50;81.20
66710;DHT22;53624;0.000;0.000;2023-03-15T10:06:40;20.70;81.20
66710;DHT22;53624;0.000;0.000;2023-03-15T10:09:12;20.70;81.10
66710;DHT22;53624;0.000;0.000;2023-03-15T10:11:43;20.80;80.40
66710;DHT22;53624;0.000;0.000;2023-03-15T10:14:17;20.90;80.20
66710;DHT22;53624;0.000;0.000;2023-03-15T10:16:49;21.00;80.40
66710;DHT22;53624;0.000;0.000;2023-03-15T10:19:20;21.00;80.30
66710;DHT22;53624;0.000;0.000;2023-03-15T10:21:54;21.10;80.10
66710;DHT22;53624;0.000;0.000;2023-03-15T10:24:24;21.10;79.50
66710;DHT22;53624;0.000;0.000;2023-03-15T10:26:54;21.30;79.60
66710;DHT22;53624;0.000;0.000;2023-03-15T10:29:25;21.30;79.60
66710;DHT22;53624;0.000;0.000;2023-03-15T10:31:54;21.40;79.40
66710;DHT22;53624;0.000;0.000;2023-03-15T10:34:22;21.50;79.20
66710;DHT22;53624;0.000;0.000;2023-03-15T10:36:51;21.60;78.60
66710;DHT22;53624;0.000;0.000;2023-03-15T10:39:20;21.60;78.40
66710;DHT22;53624;0.000;0.000;2023-03-15T10:41:48;21.70;78.40
66710;DHT22;53624;0.000;0.000;2023-03-15T10:44:17;21.80;78.30
66710;DHT22;53624;0.000;0.000;2023-03-15T10:46:59;21.90;78.20
66710;DHT22;53624;0.000;0.000;2023-03-15T10:49:33;22.00;78.30
66710;DHT22;53624;0.000;0.000;2023-03-15T10:52:01;22.00;78.30
66710;DHT22;53624;0.000;0.000;2023-03-15T10:54:30;22.00;78.30
66710;DHT22;53624;0.000;0.000;2023-03-15T10:56:58;22.10;77.80
66710;DHT22;53624;0.000;0.000;2023-03-15T10:59:27;22.10;77.30
66710;DHT22;53624;0.000;0.000;2023-03-15T11:04:40;22.20;77.40
66710;DHT22;53624;0.000;0.000;2023-03-15T11:07:09;22.20;77.00
66710;DHT22;53624;0.000;0.000;2023-03-15T11:09:38;22.30;76.90
66710;DHT22;53624;0.000;0.000;2023-03-15T11:12:07;22.30;76.30
66710;DHT22;53624;0.000;0.000;2023-03-15T11:14:36;22.40;76.20
66710;DHT22;53624;0.000;0.000;2023-03-15T11:17:05;22.50;76.70
66710;DHT22;53624;0.000;0.000;2023-03-15T11:19:33;22.60;76.70
66710;DHT22;53624;0.000;0.000;2023-03-15T11:22:04;22.60;75.00
66710;DHT22;53624;0.000;0.000;2023-03-15T11:24:32;22.70;75.30
66710;DHT22;53624;0.000;0.000;2023-03-15T11:27:00;22.80;75.60
66710;DHT22;53624;0.000;0.000;2023-03-15T11:29:28;22.90;75.80
66710;DHT22;53624;0.000;0.000;2023-03-15T11:31:57;22.80;75.80
66710;DHT22;53624;0.000;0.000;2023-03-15T11:34:36;22.90;75.50
66710;DHT22;53624;0.000;0.000;2023-03-15T11:37:10;23.00;75.60
66710;DHT22;53624;0.000;0.000;2023-03-15T11:39:40;23.00;75.40
66710;DHT22;53624;0.000;0.000;2023-03-15T11:42:12;23.00;75.50
66710;DHT22;53624;0.000;0.000;2023-03-15T11:44:42;23.00;75.00
66710;DHT22;53624;0.000;0.000;2023-03-15T11:47:12;23.10;75.30
66710;DHT22;53624;0.000;0.000;2023-03-15T11:49:42;23.10;75.10
66710;DHT22;53624;0.000;0.000;2023-03-15T11:52:15;23.10;75.20
66710;DHT22;53624;0.000;0.000;2023-03-15T11:54:43;23.20;75.00
66710;DHT22;53624;0.000;0.000;2023-03-15T11:59:53;23.20;74.40
66710;DHT22;53624;0.000;0.000;2023-03-15T12:02:34;23.30;74.20
66710;DHT22;53624;0.000;0.000;2023-03-15T12:05:03;23.30;74.50
66710;DHT22;53624;0.000;0.000;2023-03-15T12:07:37;23.40;74.30
66710;DHT22;53624;0.000;0.000;2023-03-15T12:10:29;23.50;74.10
66710;DHT22;53624;0.000;0.000;2023-03-15T12:12:57;23.50;73.90
66710;DHT22;53624;0.000;0.000;2023-03-15T12:15:45;23.60;73.50
66710;DHT22;53624;0.000;0.000;2023-03-15T12:18:13;23.60;73.30
66710;DHT22;53624;0.000;0.000;2023-03-15T12:20:42;23.70;73.10
66710;DHT22;53624;0.000;0.000;2023-03-15T12:23:17;23.70;72.90
66710;DHT22;53624;0.000;0.000;2023-03-15T12:25:49;23.70;73.00
66710;DHT22;53624;0.000;0.000;2023-03-15T12:28:18;23.90;72.40
66710;DHT22;53624;0.000;0.000;2023-03-15T12:30:51;23.90;72.40
66710;DHT22;53624;0.000;0.000;2023-03-15T12:33:19;23.90;72.50
66710;DHT22;53624;0.000;0.000;2023-03-15T12:35:48;24.00;72.10
66710;DHT22;53624;0.000;0.000;2023-03-15T12:38:17;24.00;72.20
66710;DHT22;53624;0.000;0.000;2023-03-15T12:40:50;24.00;71.60
66710;DHT22;53624;0.000;0.000;2023-03-15T12:43:34;23.90;71.80
66710;DHT22;53624;0.000;0.000;2023-03-15T12:46:02;23.70;71.50
66710;DHT22;53624;0.000;0.000;2023-03-15T12:48:29;23.80;71.40
66710;DHT22;53624;0.000;0.000;2023-03-15T12:50:58;23.90;71.60
66710;DHT22;53624;0.000;0.000;2023-03-15T12:58:55;24.00;71.40
66710;DHT22;53624;0.000;0.000;2023-03-15T13:01:24;23.90;70.50
66710;DHT22;53624;0.000;0.000;2023-03-15T13:03:53;24.00;71.10
66710;DHT22;53624;0.000;0.000;2023-03-15T13:06:23;24.00;71.20
66710;DHT22;53624;0.000;0.000;2023-03-15T13:08:56;24.00;71.10
66710;DHT22;53624;0.000;0.000;2023-03-15T13:11:26;24.00;70.60
66710;DHT22;53624;0.000;0.000;2023-03-15T13:14:02;24.00;70.00
66710;DHT22;53624;0.000;0.000;2023-03-15T13:16:35;24.00;70.80
66710;DHT22;53624;0.000;0.000;2023-03-15T13:19:11;24.10;70.90
66710;DHT22;53624;0.000;0.000;2023-03-15T13:21:47;24.00;70.30
66710;DHT22;53624;0.000;0.000;2023-03-15T13:24:18;24.10;70.60
66710;DHT22;53624;0.000;0.000;2023-03-15T13:26:50;24.00;70.70
66710;DHT22;53624;0.000;0.000;2023-03-15T13:29:25;24.00;70.40
66710;DHT22;53624;0.000;0.000;2023-03-15T13:32:00;24.00;70.50
66710;DHT22;53624;0.000;0.000;2023-03-15T13:34:28;24.00;70.60
66710;DHT22;53624;0.000;0.000;2023-03-15T13:36:57;24.00;70.20
66710;DHT22;53624;0.000;0.000;2023-03-15T13:39:25;23.90;71.20
66710;DHT22;53624;0.000;0.000;2023-03-15T13:41:57;23.90;70.30
66710;DHT22;53624;0.000;0.000;2023-03-15T13:44:27;23.90;70.50
66710;DHT22;53624;0.000;0.000;2023-03-15T13:46:55;23.80;70.50
66710;DHT22;53624;0.000;0.000;2023-03-15T13:49:24;23.70;70.60
66710;DHT22;53624;0.000;0.000;2023-03-15T13:51:52;23.70;70.60
66710;DHT22;53624;0.000;0.000;2023-03-15T13:54:21;23.60;70.70
66710;DHT22;53624;0.000;0.000;2023-03-15T13:56:54;23.50;70.70
66710;DHT22;53624;0.000;0.000;2023-03-15T13:59:23;23.50;71.00
66710;DHT22;53624;0.000;0.000;2023-03-15T14:01:54;23.40;71.10
66710;DHT22;53624;0.000;0.000;2023-03-15T14:04:22;23.30;71.10
66710;DHT22;53624;0.000;0.000;2023-03-15T14:06:50;23.10;71.30
66710;DHT22;53624;0.000;0.000;2023-03-15T14:09:28;23.00;71.60
66710;DHT22;53624;0.000;0.000;2023-03-15T14:11:59;23.00;71.80
66710;DHT22;53624;0.000;0.000;2023-03-15T14:14:28;22.90;71.80
66710;DHT22;53624;0.000;0.000;2023-03-15T14:16:57;22.80;71.80
66710;DHT22;53624;0.000;0.000;2023-03-15T14:19:26;22.80;71.90
66710;DHT22;53624;0.000;0.000;2023-03-15T14:21:54;22.70;71.80
66710;DHT22;53624;0.000;0.000;2023-03-15T14:24:25;22.60;71.80
66710;DHT22;53624;0.000;0.000;2023-03-15T14:26:53;22.60;72.20
66710;DHT22;53624;0.000;0.000;2023-03-15T14:29:24;22.50;72.20
66710;DHT22;53624;0.000;0.000;2023-03-15T14:31:57;22.40;72.00
66710;DHT22;53624;0.000;0.000;2023-03-15T14:34:29;22.40;72.20
66710;DHT22;53624;0.000;0.000;2023-03-15T14:36:58;22.30;72.50
66710;DHT22;53624;0.000;0.000;2023-03-15T14:39:29;22.20;72.50
66710;DHT22;53624;0.000;0.000;2023-03-15T14:41:57;22.10;72.70
66710;DHT22;53624;0.000;0.000;2023-03-15T14:44:24;22.00;73.00
66710;DHT22;53624;0.000;0.000;2023-03-15T14:46:52;21.90;73.10
66710;DHT22;53624;0.000;0.000;2023-03-15T14:49:21;21.80;73.00
66710;DHT22;53624;0.000;0.000;2023-03-15T14:51:51;21.70;73.10
66710;DHT22;53624;0.000;0.000;2023-03-15T14:54:19;21.60;73.00
66710;DHT22;53624;0.000;0.000;2023-03-15T14:56:47;21.50;73.20
66710;DHT22;53624;0.000;0.000;2023-03-15T14:59:14;21.40;73.40
66710;DHT22;53624;0.000;0.000;2023-03-15T15:01:45;21.30;72.60
66710;DHT22;53624;0.000;0.000;2023-03-15T15:04:14;21.20;73.20
66710;DHT22;53624;0.000;0.000;2023-03-15T15:06:42;21.10;72.90
66710;DHT22;53624;0.000;0.000;2023-03-15T15:09:17;21.00;73.60
66710;DHT22;53624;0.000;0.000;2023-03-15T15:11:45;20.90;73.50
66710;DHT22;53624;0.000;0.000;2023-03-15T15:14:12;20.80;73.60
66710;DHT22;53624;0.000;0.000;2023-03-15T15:16:40;20.70;73.70
66710;DHT22;53624;0.000;0.000;2023-03-15T15:19:08;20.70;73.80
66710;DHT22;53624;0.000;0.000;2023-03-15T15:21:36;20.50;73.10
66710;DHT22;53624;0.000;0.000;2023-03-15T15:24:04;20.50;73.40
66710;DHT22;53624;0.000;0.000;2023-03-15T15:26:34;20.40;73.60
66710;DHT22;53624;0.000;0.000;2023-03-15T15:29:02;20.50;73.50
66710;DHT22;53624;0.000;0.000;2023-03-15T15:31:29;20.50;73.50
66710;DHT22;53624;0.000;0.000;2023-03-15T15:33:59;20.50;73.60
66710;DHT22;53624;0.000;0.000;2023-03-15T15:36:27;20.50;73.80
66710;DHT22;53624;0.000;0.000;2023-03-15T15:38:56;20.40;73.60
66710;DHT22;53624;0.000;0.000;2023-03-15T15:41:24;20.40;73.80
66710;DHT22;53624;0.000;0.000;2023-03-15T15:43:53;20.40;74.40
66710;DHT22;53624;0.000;0.000;2023-03-15T15:46:21;20.30;74.10
66710;DHT22;53624;0.000;0.000;2023-03-15T15:48:48;20.30;74.20
66710;DHT22;53624;0.000;0.000;2023-03-15T15:51:24;20.20;74.20
66710;DHT22;53624;0.000;0.000;2023-03-15T15:53:52;20.10;74.10
66710;DHT22;53624;0.000;0.000;2023-03-15T15:56:21;20.10;74.40
66710;DHT22;53624;0.000;0.000;2023-03-15T15:58:53;20.00;74.40
66710;DHT22;53624;0.000;0.000;2023-03-15T16:01:23;19.90;74.30
66710;DHT22;53624;0.000;0.000;2023-03-15T16:03:50;19.90;74.70
66710;DHT22;53624;0.000;0.000;2023-03-15T16:06:19;19.80;74.60
66710;DHT22;53624;0.000;0.000;2023-03-15T16:08:47;19.80;74.80
66710;DHT22;53624;0.000;0.000;2023-03-15T16:11:15;19.70;74.90
66710;DHT22;53624;0.000;0.000;2023-03-15T16:13:43;19.60;75.00
66710;DHT22;53624;0.000;0.000;2023-03-15T16:16:14;19.60;75.00
66710;DHT22;53624;0.000;0.000;2023-03-15T16:18:42;19.50;75.20
66710;DHT22;53624;0.000;0.000;2023-03-15T16:21:11;19.50;75.40
66710;DHT22;53624;0.000;0.000;2023-03-15T16:23:40;19.40;75.00
66710;DHT22;53624;0.000;0.000;2023-03-15T16:26:08;19.40;75.40
66710;DHT22;53624;0.000;0.000;2023-03-15T16:28:38;19.30;75.30